createdAt,value
2018-01-01T00:02:11.394Z,71.16
2018-01-01T00:04:39.679Z,71.02
2018-01-01T00:07:07.972Z,71.24
2018-01-01T00:09:36.251Z,71.47
2018-01-01T00:12:04.825Z,71.34
2018-01-01T00:14:33.106Z,71.47
2018-01-01T00:17:01.370Z,71.14
2018-01-01T00:19:29.700Z,71.14
2018-01-01T00:21:58.217Z,70.44
2018-01-01T00:24:26.503Z,70.42
2018-01-01T00:26:54.827Z,70.01
2018-01-01T00:29:23.104Z,69.51
2018-01-01T00:31:51.441Z,69.33
2018-01-01T00:34:19.728Z,69.83
2018-01-01T00:36:48.018Z,69.04
2018-01-01T00:39:16.278Z,68.60
2018-01-01T00:41:44.599Z,67.87
2018-01-01T00:44:12.873Z,67.62
2018-01-01T00:46:41.131Z,68.02
2018-01-01T00:49:09.404Z,68.29
2018-01-01T00:51:39.171Z,67.90
2018-01-01T00:54:07.460Z,68.05
2018-01-01T00:56:35.753Z,67.26
2018-01-01T00:59:05.032Z,67.02
2018-01-01T01:01:33.311Z,66.80
2018-01-01T01:04:01.622Z,67.14
2018-01-01T01:06:29.895Z,66.44
2018-01-01T01:08:58.191Z,66.00
2018-01-01T01:11:26.474Z,66.00
2018-01-01T01:13:54.897Z,66.52
2018-01-01T01:16:23.178Z,66.75
2018-01-01T01:18:51.445Z,67.00
2018-01-01T01:21:19.782Z,66.59
2018-01-01T01:23:48.020Z,66.42
2018-01-01T01:26:16.319Z,66.64
2018-01-01T01:28:44.593Z,67.12
2018-01-01T01:31:12.891Z,67.28
2018-01-01T01:33:41.176Z,67.04
2018-01-01T01:36:10.468Z,66.92
2018-01-01T01:38:38.774Z,65.80
2018-01-01T01:41:07.061Z,65.75
2018-01-01T01:43:35.355Z,65.89
2018-01-01T01:46:03.642Z,65.53
2018-01-01T01:48:44.002Z,65.59
2018-01-01T01:51:12.550Z,65.04
2018-01-01T01:53:40.835Z,65.49
2018-01-01T01:56:09.138Z,65.88
2018-01-01T01:58:37.426Z,66.07
2018-01-01T02:01:05.836Z,66.54
2018-01-01T02:03:34.174Z,67.07
2018-01-01T02:06:02.411Z,66.79
2018-01-01T02:08:30.724Z,67.10
2018-01-01T02:10:58.989Z,66.90
2018-01-01T02:13:27.275Z,66.91
2018-01-01T02:15:55.568Z,67.21
2018-01-01T02:18:23.836Z,67.02
2018-01-01T02:20:52.123Z,66.65
2018-01-01T02:23:20.398Z,66.54
2018-01-01T02:25:48.697Z,66.23
2018-01-01T02:28:16.959Z,66.52
2018-01-01T02:30:45.259Z,66.60
2018-01-01T02:33:13.675Z,66.73
2018-01-01T02:35:41.947Z,66.59
2018-01-01T02:38:10.214Z,66.26
2018-01-01T02:40:38.508Z,66.23
2018-01-01T02:43:06.803Z,65.80
2018-01-01T02:45:35.095Z,65.99
2018-01-01T02:48:04.451Z,65.53
2018-01-01T02:50:32.772Z,64.93
2018-01-01T02:53:01.067Z,64.24
2018-01-01T02:55:30.280Z,63.40
2018-01-01T02:57:59.233Z,63.58
2018-01-01T03:00:27.496Z,62.63
2018-01-01T03:02:55.799Z,62.89
2018-01-01T03:05:24.074Z,61.71
2018-01-01T03:07:52.371Z,61.93
2018-01-01T03:10:20.650Z,61.74
2018-01-01T03:12:48.957Z,62.07
2018-01-01T03:15:17.252Z,61.83
2018-01-01T03:17:45.559Z,62.08
2018-01-01T03:22:47.388Z,63.35
2018-01-01T03:25:15.607Z,63.76
2018-01-01T03:27:43.914Z,63.96
2018-01-01T03:30:12.217Z,65.71
2018-01-01T03:32:40.767Z,65.89
2018-01-01T03:35:09.387Z,66.54
2018-01-01T03:37:37.663Z,66.76
2018-01-01T03:40:05.952Z,67.05
2018-01-01T03:42:34.233Z,66.52
2018-01-01T03:45:02.525Z,66.81
2018-01-01T03:47:30.790Z,66.17
2018-01-01T03:49:59.077Z,67.01
2018-01-01T03:52:27.358Z,66.76
2018-01-01T03:54:55.634Z,67.34
2018-01-01T03:57:23.961Z,66.73
2018-01-01T03:59:52.172Z,66.91
2018-01-01T04:02:20.492Z,66.70
2018-01-01T04:04:48.770Z,67.11
2018-01-01T04:07:17.049Z,66.92
2018-01-01T04:09:45.306Z,66.91
2018-01-01T04:12:13.604Z,66.96
2018-01-01T04:14:41.867Z,67.15
2018-01-01T04:17:10.142Z,66.94
2018-01-01T04:19:38.416Z,66.97
2018-01-01T04:22:06.703Z,66.97
2018-01-01T04:24:35.006Z,67.00
2018-01-01T04:27:03.943Z,67.04
2018-01-01T04:29:32.254Z,66.96
2018-01-01T04:32:00.528Z,67.28
2018-01-01T04:34:28.820Z,66.95
2018-01-01T04:36:57.079Z,67.49
2018-01-01T04:39:25.383Z,67.81
2018-01-01T04:41:53.663Z,68.28
2018-01-01T04:44:21.967Z,67.87
2018-01-01T04:46:50.313Z,68.10
2018-01-01T04:49:18.560Z,68.09
2018-01-01T04:51:46.859Z,68.21
2018-01-01T04:54:15.106Z,68.25
2018-01-01T04:56:43.415Z,68.45
2018-01-01T04:59:11.650Z,68.17
2018-01-01T05:01:39.963Z,68.07
2018-01-01T05:04:08.206Z,68.12
2018-01-01T05:06:37.745Z,68.37
2018-01-01T05:09:06.050Z,68.20
2018-01-01T05:11:34.325Z,68.05
2018-01-01T05:14:02.670Z,67.50
2018-01-01T05:16:30.976Z,67.38
2018-01-01T05:18:59.271Z,67.02
2018-01-01T05:21:27.528Z,66.78
2018-01-01T05:23:55.804Z,66.50
2018-01-01T05:26:24.087Z,66.41
2018-01-01T05:28:55.319Z,64.82
2018-01-01T05:31:23.607Z,64.39
2018-01-01T05:33:51.934Z,64.37
2018-01-01T05:36:20.242Z,64.37
2018-01-01T05:38:48.519Z,64.02
2018-01-01T05:41:16.814Z,64.18
2018-01-01T05:43:45.084Z,64.71
2018-01-01T05:46:13.374Z,65.06
2018-01-01T05:48:41.646Z,65.34
2018-01-01T05:51:10.015Z,65.31
2018-01-01T05:53:38.292Z,65.53
2018-01-01T05:56:06.567Z,66.04
2018-01-01T05:58:34.829Z,66.10
2018-01-01T06:01:03.190Z,66.74
2018-01-01T06:03:31.870Z,66.80
2018-01-01T06:06:00.092Z,66.67
2018-01-01T06:08:28.428Z,66.81
2018-01-01T06:10:56.642Z,66.86
2018-01-01T06:13:24.923Z,66.81
2018-01-01T06:15:53.258Z,66.76
2018-01-01T06:18:21.580Z,66.96
2018-01-01T06:20:50.291Z,66.85
2018-01-01T06:23:18.838Z,66.77
2018-01-01T06:25:47.147Z,66.62
2018-01-01T06:28:15.400Z,65.98
2018-01-01T06:30:43.681Z,65.61
2018-01-01T06:33:11.955Z,66.28
2018-01-01T06:35:41.074Z,69.28
2018-01-01T06:38:09.328Z,70.50
2018-01-01T06:40:37.608Z,71.08
2018-01-01T06:43:05.878Z,71.23
2018-01-01T06:45:34.156Z,71.96
2018-01-01T06:48:02.424Z,72.72
2018-01-01T06:50:30.741Z,72.28
2018-01-01T06:55:26.333Z,71.25
2018-01-01T06:57:54.613Z,71.07
2018-01-01T07:00:22.885Z,70.71
2018-01-01T07:02:51.175Z,70.56
2018-01-01T07:05:19.448Z,69.91
2018-01-01T07:07:47.773Z,69.29
2018-01-01T07:10:16.004Z,69.92
2018-01-01T07:12:44.602Z,70.42
2018-01-01T07:15:12.862Z,70.61
2018-01-01T07:17:41.140Z,71.13
2018-01-01T07:20:09.428Z,71.36
2018-01-01T07:22:37.688Z,71.55
2018-01-01T07:25:06.014Z,71.86
2018-01-01T07:27:34.340Z,71.73
2018-01-01T07:30:02.638Z,72.04
2018-01-01T07:32:30.928Z,71.75
2018-01-01T07:34:59.189Z,71.69
2018-01-01T07:37:27.454Z,71.81
2018-01-01T07:39:55.730Z,71.89
2018-01-01T07:42:24.003Z,71.32
2018-01-01T07:44:52.609Z,71.32
2018-01-01T07:47:21.774Z,71.69
2018-01-01T07:49:50.035Z,71.35
2018-01-01T07:52:18.331Z,71.24
2018-01-01T07:54:46.656Z,70.70
2018-01-01T07:57:14.939Z,70.69
2018-01-01T07:59:43.224Z,70.56
2018-01-01T08:02:11.502Z,70.42
2018-01-01T08:04:39.799Z,70.56
2018-01-01T08:07:08.095Z,70.08
2018-01-01T08:09:36.356Z,69.82
2018-01-01T08:12:04.621Z,69.82
2018-01-01T08:14:32.904Z,69.56
2018-01-01T08:17:01.174Z,69.37
2018-01-01T08:19:29.527Z,69.38
2018-01-01T08:21:57.788Z,69.04
2018-01-01T08:24:26.060Z,68.96
2018-01-01T08:26:54.323Z,68.96
2018-01-01T08:29:22.600Z,69.05
2018-01-01T08:31:50.856Z,68.55
2018-01-01T08:34:19.132Z,68.51
2018-01-01T08:36:47.403Z,68.48
2018-01-01T08:39:15.674Z,68.53
2018-01-01T08:41:43.964Z,68.48
2018-01-01T08:44:12.221Z,68.47
2018-01-01T08:46:40.530Z,68.80
2018-01-01T08:49:08.774Z,68.99
2018-01-01T08:51:37.067Z,68.94
2018-01-01T08:54:05.611Z,68.93
2018-01-01T08:56:33.906Z,69.01
2018-01-01T08:59:02.185Z,69.17
2018-01-01T09:01:30.512Z,69.13
2018-01-01T09:03:58.795Z,69.37
2018-01-01T09:06:27.074Z,69.27
2018-01-01T09:08:55.370Z,69.53
2018-01-01T09:11:23.641Z,69.84
2018-01-01T09:13:51.928Z,69.82
2018-01-01T09:16:20.707Z,69.81
2018-01-01T09:18:49.004Z,69.48
2018-01-01T09:21:17.255Z,69.43
2018-01-01T09:23:45.574Z,69.06
2018-01-01T09:26:13.830Z,69.14
2018-01-01T09:28:42.127Z,69.47
2018-01-01T09:31:10.404Z,69.70
2018-01-01T09:33:38.709Z,69.89
2018-01-01T09:36:06.965Z,70.36
2018-01-01T09:38:35.256Z,70.15
2018-01-01T09:41:03.599Z,70.12
2018-01-01T09:43:32.847Z,70.08
2018-01-01T09:46:01.153Z,70.54
2018-01-01T09:48:29.425Z,71.18
2018-01-01T09:50:57.740Z,70.97
2018-01-01T09:53:26.016Z,71.41
2018-01-01T09:55:54.398Z,71.36
2018-01-01T09:58:22.849Z,71.32
2018-01-01T10:00:52.242Z,71.42
2018-01-01T10:03:20.539Z,70.94
2018-01-01T10:05:48.820Z,71.38
2018-01-01T10:08:17.101Z,71.29
2018-01-01T10:10:45.372Z,71.09
2018-01-01T10:13:13.652Z,70.31
2018-01-01T10:15:41.916Z,70.03
2018-01-01T10:18:10.211Z,69.78
2018-01-01T10:20:38.497Z,69.70
2018-01-01T10:23:07.711Z,69.34
2018-01-01T10:25:36.015Z,68.68
2018-01-01T10:28:04.937Z,68.69
2018-01-01T10:30:33.224Z,68.70
2018-01-01T10:33:01.517Z,68.23
2018-01-01T10:35:32.767Z,67.94
2018-01-01T10:38:01.015Z,67.32
2018-01-01T10:40:29.308Z,67.71
2018-01-01T10:42:58.546Z,67.34
2018-01-01T10:45:30.254Z,67.03
2018-01-01T10:47:59.321Z,66.18
2018-01-01T10:50:28.938Z,65.96
2018-01-01T10:52:57.227Z,65.35
2018-01-01T10:55:25.522Z,65.46
2018-01-01T10:57:53.812Z,65.22
2018-01-01T11:00:22.599Z,64.84
2018-01-01T11:02:51.484Z,64.51
2018-01-01T11:05:20.565Z,64.49
2018-01-01T11:07:48.852Z,64.55
2018-01-01T11:10:17.163Z,64.54
2018-01-01T11:12:47.589Z,64.04
2018-01-01T11:15:15.878Z,63.71
2018-01-01T11:17:44.143Z,63.66
2018-01-01T11:20:12.398Z,63.97
2018-01-01T11:22:43.738Z,63.53
2018-01-01T11:25:12.008Z,63.84
2018-01-01T11:27:40.713Z,63.72
2018-01-01T11:30:09.040Z,63.37
2018-01-01T11:32:37.311Z,63.18
2018-01-01T11:35:06.134Z,63.40
2018-01-01T11:37:35.748Z,62.60
2018-01-01T11:40:05.067Z,62.68
2018-01-01T11:42:33.357Z,61.66
2018-01-01T11:45:01.667Z,61.83
2018-01-01T11:47:29.953Z,62.01
2018-01-01T11:49:58.225Z,62.27
2018-01-01T11:52:26.505Z,62.29
2018-01-01T11:54:54.783Z,62.30
2018-01-01T11:57:23.055Z,61.35
2018-01-01T11:59:51.336Z,61.12
2018-01-01T12:02:19.618Z,60.95
2018-01-01T12:04:47.893Z,61.06
2018-01-01T12:07:16.248Z,64.83
2018-01-01T12:09:44.445Z,61.35
2018-01-01T12:12:12.722Z,64.37
2018-01-01T12:14:40.999Z,65.06
2018-01-01T12:17:09.327Z,60.28
2018-01-01T12:19:37.603Z,59.19
2018-01-01T12:22:05.918Z,59.79
2018-01-01T12:24:34.179Z,60.89
2018-01-01T12:27:03.383Z,61.11
2018-01-01T12:29:31.655Z,61.49
2018-01-01T12:31:59.947Z,61.44
2018-01-01T12:34:28.229Z,61.46
2018-01-01T12:36:56.554Z,61.71
2018-01-01T12:39:24.840Z,62.11
2018-01-01T12:41:53.099Z,61.76
2018-01-01T12:44:21.504Z,62.09
2018-01-01T12:46:49.723Z,61.75
2018-01-01T12:49:18.019Z,61.49
2018-01-01T12:51:46.278Z,60.72
2018-01-01T12:54:14.579Z,61.44
2018-01-01T12:56:42.857Z,61.07
2018-01-01T12:59:12.221Z,60.90
2018-01-01T13:01:40.494Z,61.11
2018-01-01T13:04:08.776Z,61.34
2018-01-01T13:06:37.025Z,61.18
2018-01-01T13:09:05.334Z,60.70
2018-01-01T13:11:33.592Z,60.85
2018-01-01T13:14:01.859Z,60.91
2018-01-01T13:16:30.748Z,60.75
2018-01-01T13:18:59.127Z,60.39
2018-01-01T13:21:27.361Z,60.96
2018-01-01T13:23:55.648Z,60.54
2018-01-01T13:26:23.931Z,60.56
2018-01-01T13:28:52.228Z,60.98
2018-01-01T13:31:20.490Z,60.93
2018-01-01T13:33:48.755Z,60.92
2018-01-01T13:36:17.067Z,61.08
2018-01-01T13:38:45.320Z,60.78
2018-01-01T13:43:48.027Z,60.60
2018-01-01T13:46:16.327Z,60.92
2018-01-01T13:48:44.610Z,61.09
2018-01-01T13:51:13.821Z,61.62
2018-01-01T13:53:42.149Z,61.94
2018-01-01T13:56:12.110Z,61.56
2018-01-01T13:58:40.363Z,62.45
2018-01-01T14:01:08.843Z,62.66
2018-01-01T14:03:37.119Z,62.43
2018-01-01T14:06:05.448Z,62.75
2018-01-01T14:08:33.739Z,64.39
2018-01-01T14:11:01.980Z,64.84
2018-01-01T14:13:30.287Z,64.57
2018-01-01T14:15:58.544Z,64.29
2018-01-01T14:18:26.827Z,65.30
2018-01-01T14:20:55.062Z,65.49
2018-01-01T14:23:23.343Z,67.15
2018-01-01T14:25:52.452Z,66.86
2018-01-01T14:28:20.699Z,66.88
2018-01-01T14:30:50.181Z,67.49
2018-01-01T14:33:18.491Z,68.30
2018-01-01T14:35:46.791Z,69.46
2018-01-01T14:38:15.587Z,69.28
2018-01-01T14:40:43.888Z,69.77
2018-01-01T14:43:13.126Z,69.96
2018-01-01T14:45:42.017Z,71.04
2018-01-01T14:48:12.183Z,71.47
2018-01-01T14:50:41.857Z,72.23
2018-01-01T14:53:10.196Z,72.75
2018-01-01T14:55:38.513Z,73.61
2018-01-01T14:58:06.809Z,73.77
2018-01-01T15:00:35.215Z,73.98
2018-01-01T15:03:03.465Z,74.81
2018-01-01T15:05:32.617Z,75.13
2018-01-01T15:08:01.036Z,74.71
2018-01-01T15:10:30.466Z,74.61
2018-01-01T15:12:58.726Z,74.37
2018-01-01T15:15:26.990Z,75.02
2018-01-01T15:17:55.555Z,74.39
2018-01-01T15:20:23.869Z,73.62
2018-01-01T15:22:52.154Z,74.76
2018-01-01T15:25:20.399Z,74.69
2018-01-01T15:27:48.808Z,74.17
2018-01-01T15:30:17.029Z,74.57
2018-01-01T15:32:45.841Z,74.32
2018-01-01T15:35:14.128Z,74.72
2018-01-01T15:37:42.454Z,74.92
2018-01-01T15:40:10.734Z,75.38
2018-01-01T15:42:39.006Z,75.55
2018-01-01T15:45:07.283Z,74.84
2018-01-01T15:47:35.542Z,75.59
2018-01-01T15:50:03.896Z,76.21
2018-01-01T15:52:32.149Z,76.36
2018-01-01T15:55:00.440Z,76.81
2018-01-01T15:57:28.865Z,76.65
2018-01-01T15:59:57.216Z,76.09
2018-01-01T16:02:25.478Z,76.01
2018-01-01T16:04:53.782Z,75.92
2018-01-01T16:07:22.321Z,74.83
2018-01-01T16:09:50.616Z,75.12
2018-01-01T16:12:18.921Z,75.14
2018-01-01T16:14:47.208Z,74.43
2018-01-01T16:17:15.491Z,75.50
2018-01-01T16:19:43.737Z,75.67
2018-01-01T16:22:12.051Z,75.81
2018-01-01T16:24:40.367Z,75.72
2018-01-01T16:27:08.679Z,76.07
2018-01-01T16:29:37.021Z,75.93
2018-01-01T16:32:06.241Z,75.89
2018-01-01T16:34:34.548Z,75.51
2018-01-01T16:37:02.815Z,74.89
2018-01-01T16:39:31.103Z,75.46
2018-01-01T16:41:59.346Z,74.84
2018-01-01T16:44:27.607Z,75.56
2018-01-01T16:46:55.890Z,76.26
2018-01-01T16:49:24.173Z,76.15
2018-01-01T16:51:52.540Z,76.18
2018-01-01T16:54:20.869Z,75.86
2018-01-01T16:56:49.173Z,75.81
2018-01-01T16:59:17.470Z,76.48
2018-01-01T17:01:45.848Z,76.68
2018-01-01T17:04:14.073Z,77.07
2018-01-01T17:06:42.342Z,77.01
2018-01-01T17:09:10.622Z,76.93
2018-01-01T17:11:39.246Z,76.63
2018-01-01T17:14:07.581Z,77.40
2018-01-01T17:16:35.875Z,77.15
2018-01-01T17:19:04.143Z,77.48
2018-01-01T17:21:32.473Z,78.00
2018-01-01T17:24:00.948Z,78.10
2018-01-01T17:26:29.329Z,78.01
2018-01-01T17:28:57.598Z,77.58
2018-01-01T17:31:25.883Z,77.58
2018-01-01T17:33:54.179Z,77.62
2018-01-01T17:36:22.436Z,78.14
2018-01-01T17:38:50.733Z,77.59
2018-01-01T17:41:18.992Z,77.37
2018-01-01T17:43:47.269Z,77.43
2018-01-01T17:46:15.534Z,77.23
2018-01-01T17:48:43.818Z,77.02
2018-01-01T17:51:12.088Z,77.23
2018-01-01T17:53:40.398Z,77.29
2018-01-01T17:56:08.664Z,77.12
2018-01-01T17:58:36.947Z,76.69
2018-01-01T18:01:05.200Z,76.70
2018-01-01T18:03:33.460Z,77.53
2018-01-01T18:06:01.774Z,76.96
2018-01-01T18:08:29.977Z,77.09
2018-01-01T18:10:58.356Z,77.25
2018-01-01T18:13:26.603Z,77.20
2018-01-01T18:15:54.881Z,77.25
2018-01-01T18:18:23.141Z,77.23
2018-01-01T18:20:51.461Z,77.60
2018-01-01T18:23:19.735Z,77.90
2018-01-01T18:25:48.014Z,77.89
2018-01-01T18:28:16.270Z,77.85
2018-01-01T18:30:44.677Z,77.51
2018-01-01T18:33:12.946Z,77.47
2018-01-01T18:35:41.215Z,77.27
2018-01-01T18:38:09.498Z,77.47
2018-01-01T18:40:37.779Z,76.88
2018-01-01T18:43:06.051Z,76.50
2018-01-01T18:45:34.366Z,76.67
2018-01-01T18:48:02.640Z,77.23
2018-01-01T18:50:31.010Z,77.26
2018-01-01T18:52:59.298Z,77.09
2018-01-01T18:55:27.542Z,77.01
2018-01-01T18:57:55.892Z,77.39
2018-01-01T19:00:24.160Z,77.83
2018-01-01T19:02:52.454Z,78.25
2018-01-01T19:05:20.723Z,78.36
2018-01-01T19:07:49.024Z,79.70
2018-01-01T19:10:17.352Z,79.78
2018-01-01T19:12:45.590Z,79.87
2018-01-01T19:15:13.971Z,80.32
2018-01-01T19:17:42.246Z,80.57
2018-01-01T19:20:10.523Z,80.82
2018-01-01T19:22:38.744Z,81.25
2018-01-01T19:25:07.049Z,81.14
2018-01-01T19:27:35.331Z,81.45
2018-01-01T19:30:03.625Z,80.69
2018-01-01T19:32:31.877Z,80.57
2018-01-01T19:35:00.208Z,80.09
2018-01-01T19:37:28.448Z,79.98
2018-01-01T19:39:56.753Z,80.20
2018-01-01T19:42:25.024Z,80.36
2018-01-01T19:44:53.317Z,80.13
2018-01-01T19:47:21.576Z,80.30
2018-01-01T19:49:49.822Z,80.41
2018-01-01T19:52:18.098Z,80.63
2018-01-01T19:54:47.193Z,80.56
2018-01-01T19:57:15.503Z,80.04
2018-01-01T19:59:43.759Z,79.98
2018-01-01T20:02:12.053Z,80.24
2018-01-01T20:04:40.608Z,80.34
2018-01-01T20:07:08.990Z,80.46
2018-01-01T20:09:37.204Z,80.39
2018-01-01T20:12:05.486Z,80.19
2018-01-01T20:14:33.747Z,80.44
2018-01-01T20:17:02.042Z,80.72
2018-01-01T20:19:30.502Z,81.00
2018-01-01T20:21:58.808Z,81.07
2018-01-01T20:24:27.030Z,81.16
2018-01-01T20:26:55.330Z,81.05
2018-01-01T20:29:23.598Z,81.45
2018-01-01T20:31:51.863Z,81.39
2018-01-01T20:34:20.140Z,81.55
2018-01-01T20:36:48.417Z,81.49
2018-01-01T20:39:16.710Z,81.87
2018-01-01T20:41:44.971Z,81.81
2018-01-01T20:44:13.270Z,81.53
2018-01-01T20:46:41.532Z,81.67
2018-01-01T20:49:10.093Z,81.59
2018-01-01T20:51:38.361Z,81.64
2018-01-01T20:54:06.676Z,81.69
2018-01-01T20:56:34.924Z,81.77
2018-01-01T20:59:03.166Z,81.65
2018-01-01T21:01:31.460Z,81.82
2018-01-01T21:04:00.083Z,82.03
2018-01-01T21:06:28.354Z,82.06
2018-01-01T21:08:56.736Z,81.92
2018-01-01T21:11:25.098Z,81.61
2018-01-01T21:13:53.351Z,81.84
2018-01-01T21:16:21.644Z,81.87
2018-01-01T21:18:49.899Z,81.43
2018-01-01T21:21:18.238Z,81.95
2018-01-01T21:23:46.487Z,82.21
2018-01-01T21:26:14.756Z,82.35
2018-01-01T21:28:43.012Z,82.51
2018-01-01T21:31:11.314Z,82.29
2018-01-01T21:33:39.782Z,82.44
2018-01-01T21:36:08.005Z,82.46
2018-01-01T21:38:36.285Z,82.23
2018-01-01T21:41:04.579Z,82.57
2018-01-01T21:43:32.855Z,82.96
2018-01-01T21:46:01.107Z,83.03
2018-01-01T21:48:29.396Z,82.92
2018-01-01T21:50:57.679Z,82.76
2018-01-01T21:53:25.987Z,82.52
2018-01-01T21:55:54.211Z,82.68
2018-01-01T21:58:22.477Z,82.92
2018-01-01T22:00:50.774Z,83.06
2018-01-01T22:03:19.037Z,83.63
2018-01-01T22:05:47.373Z,83.51
2018-01-01T22:08:15.611Z,83.27
2018-01-01T22:10:43.905Z,83.30
2018-01-01T22:13:12.194Z,83.14
2018-01-01T22:15:40.495Z,83.00
2018-01-01T22:18:08.747Z,82.96
2018-01-01T22:20:37.331Z,82.38
2018-01-01T22:23:05.576Z,82.22
2018-01-01T22:25:33.889Z,81.40
2018-01-01T22:28:02.204Z,80.52
2018-01-01T22:30:30.490Z,80.98
2018-01-01T22:32:58.789Z,81.35
2018-01-01T22:35:27.205Z,81.29
2018-01-01T22:37:55.471Z,81.36
2018-01-01T22:40:23.735Z,81.15
2018-01-01T22:42:52.031Z,80.83
2018-01-01T22:45:20.296Z,80.44
2018-01-01T22:47:48.573Z,79.95
2018-01-01T22:50:16.859Z,79.84
2018-01-01T22:52:45.146Z,80.39
2018-01-01T22:55:14.402Z,80.06
2018-01-01T22:57:42.678Z,79.59
2018-01-01T23:00:10.976Z,79.19
2018-01-01T23:02:39.230Z,78.86
2018-01-01T23:05:07.519Z,78.28
2018-01-01T23:07:35.784Z,78.00
2018-01-01T23:10:04.063Z,78.02
2018-01-01T23:12:32.333Z,77.12
2018-01-01T23:15:00.620Z,77.01
2018-01-01T23:17:28.911Z,76.85
2018-01-01T23:19:57.202Z,76.51
2018-01-01T23:22:25.450Z,76.65
2018-01-01T23:24:53.723Z,76.28
2018-01-01T23:27:22.008Z,76.91
2018-01-01T23:29:50.289Z,77.61
2018-01-01T23:32:18.565Z,78.11
2018-01-01T23:34:46.830Z,77.54
2018-01-01T23:37:15.118Z,76.76
2018-01-01T23:39:43.379Z,76.86
2018-01-01T23:42:11.655Z,76.59
2018-01-01T23:44:39.930Z,76.56
2018-01-01T23:47:08.251Z,76.47
2018-01-01T23:49:36.502Z,75.74
2018-01-01T23:52:04.777Z,75.86
2018-01-01T23:54:33.038Z,75.62
2018-01-01T23:57:01.321Z,75.16
2018-01-01T23:59:29.607Z,75.21
